sensor_id;sensor_type;location;lat;lon;timestamp;temperature;humidity
20881;DHT22;10600;53.096;8.802;2022-10-16T00:00:47;13.10;99.90
20881;DHT22;10600;53.096;8.802;2022-10-16T00:01:47;13.10;99.90
20881;DHT22;10600;53.096;8.802;2022-10-16T00:02:48;13.10;99.90
20881;DHT22;10600;53.096;8.802;2022-10-16T00:03:49;13.10;99.90
20881;DHT22;10600;53.096;8.802;2022-10-16T00:04:50;13.10;99.90
20881;DHT22;10600;53.096;8.802;2022-10-16T00:05:50;13.00;99.90
20881;DHT22;10600;53.096;8.802;2022-10-16T00:06:51;13.00;99.90
20881;DHT22;10600;53.096;8.802;2022-10-16T00:07:52;13.00;99.90
20881;DHT22;10600;53.096;8.802;2022-10-16T00:08:52;13.00;99.90
20881;DHT22;10600;53.096;8.802;2022-10-16T00:09:53;13.00;99.90
20881;DHT22;10600;53.096;8.802;2022-10-16T00:11:00;13.00;99.90
20881;DHT22;10600;53.096;8.802;2022-10-16T00:12:00;12.90;99.90
20881;DHT22;10600;53.096;8.802;2022-10-16T00:13:01;12.90;99.90
20881;DHT22;10600;53.096;8.802;2022-10-16T00:14:06;12.90;99.90
20881;DHT22;10600;53.096;8.802;2022-10-16T00:15:07;12.90;99.90
20881;DHT22;10600;53.096;8.802;2022-10-16T00:16:09;12.90;99.90
20881;DHT22;10600;53.096;8.802;2022-10-16T00:17:10;12.90;99.90
20881;DHT22;10600;53.096;8.802;2022-10-16T00:18:10;12.90;99.90
20881;DHT22;10600;53.096;8.802;2022-10-16T00:19:11;12.90;99.90
20881;DHT22;10600;53.096;8.802;2022-10-16T00:20:12;12.90;99.90
20881;DHT22;10600;53.096;8.802;2022-10-16T00:21:16;12.90;99.90
20881;DHT22;10600;53.096;8.802;2022-10-16T00:22:17;12.90;99.90
20881;DHT22;10600;53.096;8.802;2022-10-16T00:23:18;12.90;99.90
20881;DHT22;10600;53.096;8.802;2022-10-16T00:24:19;12.90;99.90
20881;DHT22;10600;53.096;8.802;2022-10-16T00:25:19;12.90;99.90
20881;DHT22;10600;53.096;8.802;2022-10-16T00:26:21;12.90;99.90
20881;DHT22;10600;53.096;8.802;2022-10-16T00:27:22;12.90;99.90
20881;DHT22;10600;53.096;8.802;2022-10-16T00:28:23;12.90;99.90
20881;DHT22;10600;53.096;8.802;2022-10-16T00:29:23;12.90;99.90
20881;DHT22;10600;53.096;8.802;2022-10-16T00:30:24;12.80;99.90
20881;DHT22;10600;53.096;8.802;2022-10-16T00:31:27;12.80;99.90
20881;DHT22;10600;53.096;8.802;2022-10-16T00:32:28;12.80;99.90
20881;DHT22;10600;53.096;8.802;2022-10-16T00:33:28;12.80;99.90
20881;DHT22;10600;53.096;8.802;2022-10-16T00:34:29;12.80;99.90
20881;DHT22;10600;53.096;8.802;2022-10-16T00:35:31;12.80;99.90
20881;DHT22;10600;53.096;8.802;2022-10-16T00:36:31;12.90;99.90
20881;DHT22;10600;53.096;8.802;2022-10-16T00:37:32;12.80;99.90
20881;DHT22;10600;53.096;8.802;2022-10-16T00:38:33;12.80;99.90
20881;DHT22;10600;53.096;8.802;2022-10-16T00:39:34;12.80;99.90
20881;DHT22;10600;53.096;8.802;2022-10-16T00:40:34;12.80;99.90
20881;DHT22;10600;53.096;8.802;2022-10-16T00:41:35;12.80;99.90
20881;DHT22;10600;53.096;8.802;2022-10-16T00:42:36;12.80;99.90
20881;DHT22;10600;53.096;8.802;2022-10-16T00:43:50;12.70;99.90
20881;DHT22;10600;53.096;8.802;2022-10-16T00:44:56;12.70;99.90
20881;DHT22;10600;53.096;8.802;2022-10-16T00:45:57;12.70;99.90
20881;DHT22;10600;53.096;8.802;2022-10-16T00:46:58;12.70;99.90
20881;DHT22;10600;53.096;8.802;2022-10-16T00:47:58;12.80;99.90
20881;DHT22;10600;53.096;8.802;2022-10-16T00:49:03;12.70;99.90
20881;DHT22;10600;53.096;8.802;2022-10-16T00:50:11;12.70;99.90
20881;DHT22;10600;53.096;8.802;2022-10-16T00:51:14;12.70;99.90
20881;DHT22;10600;53.096;8.802;2022-10-16T00:52:15;12.70;99.90
20881;DHT22;10600;53.096;8.802;2022-10-16T00:53:17;12.70;99.90
20881;DHT22;10600;53.096;8.802;2022-10-16T00:54:22;12.70;99.90
20881;DHT22;10600;53.096;8.802;2022-10-16T00:55:24;12.70;99.90
20881;DHT22;10600;53.096;8.802;2022-10-16T00:56:26;12.60;99.90
20881;DHT22;10600;53.096;8.802;2022-10-16T00:57:26;12.70;99.90
20881;DHT22;10600;53.096;8.802;2022-10-16T00:58:27;12.60;99.90
20881;DHT22;10600;53.096;8.802;2022-10-16T00:59:31;12.60;99.90
20881;DHT22;10600;53.096;8.802;2022-10-16T01:00:32;12.60;99.90
20881;DHT22;10600;53.096;8.802;2022-10-16T01:01:33;12.60;99.90
20881;DHT22;10600;53.096;8.802;2022-10-16T01:02:33;12.60;99.90
20881;DHT22;10600;53.096;8.802;2022-10-16T01:03:35;12.60;99.90
20881;DHT22;10600;53.096;8.802;2022-10-16T01:04:44;12.60;99.90
20881;DHT22;10600;53.096;8.802;2022-10-16T01:05:50;12.50;99.90
20881;DHT22;10600;53.096;8.802;2022-10-16T01:07:10;12.60;99.90
20881;DHT22;10600;53.096;8.802;2022-10-16T01:08:27;12.50;99.90
20881;DHT22;10600;53.096;8.802;2022-10-16T01:13:42;12.40;99.90
20881;DHT22;10600;53.096;8.802;2022-10-16T01:14:47;12.40;99.90
20881;DHT22;10600;53.096;8.802;2022-10-16T01:16:15;12.40;99.90
20881;DHT22;10600;53.096;8.802;2022-10-16T01:17:51;12.40;99.90
20881;DHT22;10600;53.096;8.802;2022-10-16T01:21:36;12.30;99.90
20881;DHT22;10600;53.096;8.802;2022-10-16T01:24:31;12.20;99.90
20881;DHT22;10600;53.096;8.802;2022-10-16T01:28:17;12.10;99.90
20881;DHT22;10600;53.096;8.802;2022-10-16T01:29:22;12.10;99.90
20881;DHT22;10600;53.096;8.802;2022-10-16T01:30:28;12.10;99.90
20881;DHT22;10600;53.096;8.802;2022-10-16T01:31:33;12.00;99.90
20881;DHT22;10600;53.096;8.802;2022-10-16T01:32:55;12.10;99.90
20881;DHT22;10600;53.096;8.802;2022-10-16T01:34:10;12.00;99.90
20881;DHT22;10600;53.096;8.802;2022-10-16T01:35:36;12.00;99.90
20881;DHT22;10600;53.096;8.802;2022-10-16T01:36:51;12.00;99.90
20881;DHT22;10600;53.096;8.802;2022-10-16T01:38:05;12.00;99.90
20881;DHT22;10600;53.096;8.802;2022-10-16T01:39:10;12.00;99.90
20881;DHT22;10600;53.096;8.802;2022-10-16T01:40:14;11.90;99.90
20881;DHT22;10600;53.096;8.802;2022-10-16T01:41:26;12.00;99.90
20881;DHT22;10600;53.096;8.802;2022-10-16T01:42:38;11.90;99.90
20881;DHT22;10600;53.096;8.802;2022-10-16T01:43:45;11.90;99.90
20881;DHT22;10600;53.096;8.802;2022-10-16T01:44:47;11.90;99.90
20881;DHT22;10600;53.096;8.802;2022-10-16T01:45:49;11.90;99.90
20881;DHT22;10600;53.096;8.802;2022-10-16T01:46:52;11.90;99.90
20881;DHT22;10600;53.096;8.802;2022-10-16T01:47:53;11.90;99.90
20881;DHT22;10600;53.096;8.802;2022-10-16T01:48:55;11.90;99.90
20881;DHT22;10600;53.096;8.802;2022-10-16T01:49:56;11.90;99.90
20881;DHT22;10600;53.096;8.802;2022-10-16T01:51:07;11.90;99.90
20881;DHT22;10600;53.096;8.802;2022-10-16T01:52:13;11.90;99.90
20881;DHT22;10600;53.096;8.802;2022-10-16T01:53:16;11.90;99.90
20881;DHT22;10600;53.096;8.802;2022-10-16T01:54:18;11.90;99.90
20881;DHT22;10600;53.096;8.802;2022-10-16T01:55:26;11.80;99.90
20881;DHT22;10600;53.096;8.802;2022-10-16T01:56:29;11.80;99.90
20881;DHT22;10600;53.096;8.802;2022-10-16T01:57:32;11.80;99.90
20881;DHT22;10600;53.096;8.802;2022-10-16T01:58:38;11.80;99.90
20881;DHT22;10600;53.096;8.802;2022-10-16T01:59:46;11.80;99.90
20881;DHT22;10600;53.096;8.802;2022-10-16T02:00:47;11.80;99.90
20881;DHT22;10600;53.096;8.802;2022-10-16T02:01:59;11.80;99.90
20881;DHT22;10600;53.096;8.802;2022-10-16T02:03:02;11.80;99.90
20881;DHT22;10600;53.096;8.802;2022-10-16T02:04:17;11.80;99.90
20881;DHT22;10600;53.096;8.802;2022-10-16T02:05:36;11.80;99.90
20881;DHT22;10600;53.096;8.802;2022-10-16T02:06:38;11.70;99.90
20881;DHT22;10600;53.096;8.802;2022-10-16T02:07:39;11.80;99.90
20881;DHT22;10600;53.096;8.802;2022-10-16T02:08:41;11.80;99.90
20881;DHT22;10600;53.096;8.802;2022-10-16T02:09:44;11.70;99.90
20881;DHT22;10600;53.096;8.802;2022-10-16T02:10:45;11.80;99.90
20881;DHT22;10600;53.096;8.802;2022-10-16T02:11:46;11.70;99.90
20881;DHT22;10600;53.096;8.802;2022-10-16T02:12:58;11.80;99.90
20881;DHT22;10600;53.096;8.802;2022-10-16T02:14:04;11.80;99.90
20881;DHT22;10600;53.096;8.802;2022-10-16T02:15:06;11.80;99.90
20881;DHT22;10600;53.096;8.802;2022-10-16T02:16:09;11.80;99.90
20881;DHT22;10600;53.096;8.802;2022-10-16T02:17:15;11.80;99.90
20881;DHT22;10600;53.096;8.802;2022-10-16T02:18:16;11.80;99.90
20881;DHT22;10600;53.096;8.802;2022-10-16T02:19:19;11.70;99.90
20881;DHT22;10600;53.096;8.802;2022-10-16T02:20:25;11.80;99.90
20881;DHT22;10600;53.096;8.802;2022-10-16T02:22:48;11.80;99.90
20881;DHT22;10600;53.096;8.802;2022-10-16T02:24:08;11.80;99.90
20881;DHT22;10600;53.096;8.802;2022-10-16T02:25:17;11.80;99.90
20881;DHT22;10600;53.096;8.802;2022-10-16T02:26:28;11.80;99.90
20881;DHT22;10600;53.096;8.802;2022-10-16T02:28:53;11.80;99.90
20881;DHT22;10600;53.096;8.802;2022-10-16T02:30:12;11.70;99.90
20881;DHT22;10600;53.096;8.802;2022-10-16T02:31:18;11.70;99.90
20881;DHT22;10600;53.096;8.802;2022-10-16T02:32:23;11.80;99.90
20881;DHT22;10600;53.096;8.802;2022-10-16T02:33:25;11.70;99.90
20881;DHT22;10600;53.096;8.802;2022-10-16T02:34:28;11.80;99.90
20881;DHT22;10600;53.096;8.802;2022-10-16T02:35:31;11.80;99.90
20881;DHT22;10600;53.096;8.802;2022-10-16T02:36:33;11.70;99.90
20881;DHT22;10600;53.096;8.802;2022-10-16T02:37:36;11.70;99.90
20881;DHT22;10600;53.096;8.802;2022-10-16T02:38:40;11.80;99.90
20881;DHT22;10600;53.096;8.802;2022-10-16T02:39:41;11.80;99.90
20881;DHT22;10600;53.096;8.802;2022-10-16T02:40:42;11.80;99.90
20881;DHT22;10600;53.096;8.802;2022-10-16T02:41:43;11.70;99.90
20881;DHT22;10600;53.096;8.802;2022-10-16T02:42:44;11.80;99.90
20881;DHT22;10600;53.096;8.802;2022-10-16T02:43:44;11.80;99.90
20881;DHT22;10600;53.096;8.802;2022-10-16T02:44:45;11.80;99.90
20881;DHT22;10600;53.096;8.802;2022-10-16T02:45:46;11.80;99.90
20881;DHT22;10600;53.096;8.802;2022-10-16T02:46:46;11.80;99.90
20881;DHT22;10600;53.096;8.802;2022-10-16T02:47:47;11.80;99.90
20881;DHT22;10600;53.096;8.802;2022-10-16T02:48:48;11.80;99.90
20881;DHT22;10600;53.096;8.802;2022-10-16T02:49:48;11.80;99.90
20881;DHT22;10600;53.096;8.802;2022-10-16T02:50:49;11.80;99.90
20881;DHT22;10600;53.096;8.802;2022-10-16T02:51:50;11.80;99.90
20881;DHT22;10600;53.096;8.802;2022-10-16T02:52:50;11.70;99.90
20881;DHT22;10600;53.096;8.802;2022-10-16T02:53:51;11.80;99.90
20881;DHT22;10600;53.096;8.802;2022-10-16T02:54:52;11.70;99.90
20881;DHT22;10600;53.096;8.802;2022-10-16T02:55:52;11.70;99.90
20881;DHT22;10600;53.096;8.802;2022-10-16T02:56:53;11.80;99.90
20881;DHT22;10600;53.096;8.802;2022-10-16T02:57:55;11.70;99.90
20881;DHT22;10600;53.096;8.802;2022-10-16T02:58:56;11.70;99.90
20881;DHT22;10600;53.096;8.802;2022-10-16T02:59:57;11.70;99.90
20881;DHT22;10600;53.096;8.802;2022-10-16T03:00:57;11.70;99.90
20881;DHT22;10600;53.096;8.802;2022-10-16T03:01:58;11.70;99.90
20881;DHT22;10600;53.096;8.802;2022-10-16T03:02:58;11.70;99.90
20881;DHT22;10600;53.096;8.802;2022-10-16T03:03:59;11.70;99.90
20881;DHT22;10600;53.096;8.802;2022-10-16T03:05:00;11.70;99.90
20881;DHT22;10600;53.096;8.802;2022-10-16T03:06:00;11.70;99.90
20881;DHT22;10600;53.096;8.802;2022-10-16T03:07:01;11.60;99.90
20881;DHT22;10600;53.096;8.802;2022-10-16T03:08:02;11.70;99.90
20881;DHT22;10600;53.096;8.802;2022-10-16T03:09:03;11.60;99.90
20881;DHT22;10600;53.096;8.802;2022-10-16T03:10:04;11.60;99.90
20881;DHT22;10600;53.096;8.802;2022-10-16T03:11:05;11.60;99.90
20881;DHT22;10600;53.096;8.802;2022-10-16T03:12:06;11.60;99.90
20881;DHT22;10600;53.096;8.802;2022-10-16T03:13:07;11.60;99.90
20881;DHT22;10600;53.096;8.802;2022-10-16T03:14:07;11.60;99.90
20881;DHT22;10600;53.096;8.802;2022-10-16T03:15:08;11.70;99.90
20881;DHT22;10600;53.096;8.802;2022-10-16T03:16:09;11.60;99.90
20881;DHT22;10600;53.096;8.802;2022-10-16T03:17:10;11.60;99.90
20881;DHT22;10600;53.096;8.802;2022-10-16T03:18:10;11.60;99.90
20881;DHT22;10600;53.096;8.802;2022-10-16T03:19:11;11.60;99.90
20881;DHT22;10600;53.096;8.802;2022-10-16T03:20:11;11.60;99.90
20881;DHT22;10600;53.096;8.802;2022-10-16T03:21:12;11.60;99.90
20881;DHT22;10600;53.096;8.802;2022-10-16T03:22:13;11.60;99.90
20881;DHT22;10600;53.096;8.802;2022-10-16T03:23:13;11.60;99.90
20881;DHT22;10600;53.096;8.802;2022-10-16T03:24:14;11.60;99.90
20881;DHT22;10600;53.096;8.802;2022-10-16T03:25:15;11.60;99.90
20881;DHT22;10600;53.096;8.802;2022-10-16T03:26:15;11.60;99.90
20881;DHT22;10600;53.096;8.802;2022-10-16T03:27:17;11.60;99.90
20881;DHT22;10600;53.096;8.802;2022-10-16T03:28:17;11.60;99.90
20881;DHT22;10600;53.096;8.802;2022-10-16T03:29:18;11.60;99.90
20881;DHT22;10600;53.096;8.802;2022-10-16T03:30:19;11.50;99.90
20881;DHT22;10600;53.096;8.802;2022-10-16T03:31:19;11.60;99.90
20881;DHT22;10600;53.096;8.802;2022-10-16T03:32:20;11.50;99.90
20881;DHT22;10600;53.096;8.802;2022-10-16T03:33:21;11.60;99.90
20881;DHT22;10600;53.096;8.802;2022-10-16T03:34:22;11.60;99.90
20881;DHT22;10600;53.096;8.802;2022-10-16T03:35:23;11.50;99.90
20881;DHT22;10600;53.096;8.802;2022-10-16T03:36:24;11.60;99.90
20881;DHT22;10600;53.096;8.802;2022-10-16T03:37:25;11.60;99.90
20881;DHT22;10600;53.096;8.802;2022-10-16T03:38:25;11.50;99.90
20881;DHT22;10600;53.096;8.802;2022-10-16T03:39:26;11.60;99.90
20881;DHT22;10600;53.096;8.802;2022-10-16T03:40:27;11.50;99.90
20881;DHT22;10600;53.096;8.802;2022-10-16T03:41:28;11.50;99.90
20881;DHT22;10600;53.096;8.802;2022-10-16T03:42:29;11.50;99.90
20881;DHT22;10600;53.096;8.802;2022-10-16T03:43:30;11.50;99.90
20881;DHT22;10600;53.096;8.802;2022-10-16T03:44:30;11.50;99.90
20881;DHT22;10600;53.096;8.802;2022-10-16T03:45:31;11.50;99.90
20881;DHT22;10600;53.096;8.802;2022-10-16T03:46:31;11.50;99.90
20881;DHT22;10600;53.096;8.802;2022-10-16T03:47:32;11.50;99.90
20881;DHT22;10600;53.096;8.802;2022-10-16T03:48:33;11.50;99.90
20881;DHT22;10600;53.096;8.802;2022-10-16T03:49:34;11.50;99.90
20881;DHT22;10600;53.096;8.802;2022-10-16T03:50:35;11.40;99.90
20881;DHT22;10600;53.096;8.802;2022-10-16T03:51:36;11.40;99.90
20881;DHT22;10600;53.096;8.802;2022-10-16T03:52:36;11.40;99.90
20881;DHT22;10600;53.096;8.802;2022-10-16T03:53:37;11.40;99.90
20881;DHT22;10600;53.096;8.802;2022-10-16T03:54:38;11.40;99.90
20881;DHT22;10600;53.096;8.802;2022-10-16T03:55:41;11.40;99.90
20881;DHT22;10600;53.096;8.802;2022-10-16T03:56:42;11.40;99.90
20881;DHT22;10600;53.096;8.802;2022-10-16T03:57:42;11.40;99.90
20881;DHT22;10600;53.096;8.802;2022-10-16T03:58:43;11.40;99.90
20881;DHT22;10600;53.096;8.802;2022-10-16T03:59:43;11.40;99.90
20881;DHT22;10600;53.096;8.802;2022-10-16T04:00:45;11.40;99.90
20881;DHT22;10600;53.096;8.802;2022-10-16T04:01:47;11.40;99.90
20881;DHT22;10600;53.096;8.802;2022-10-16T04:02:48;11.40;99.90
20881;DHT22;10600;53.096;8.802;2022-10-16T04:03:48;11.40;99.90
20881;DHT22;10600;53.096;8.802;2022-10-16T04:04:49;11.30;99.90
20881;DHT22;10600;53.096;8.802;2022-10-16T04:05:50;11.30;99.90
20881;DHT22;10600;53.096;8.802;2022-10-16T04:06:51;11.30;99.90
20881;DHT22;10600;53.096;8.802;2022-10-16T04:07:52;11.30;99.90
20881;DHT22;10600;53.096;8.802;2022-10-16T04:08:53;11.30;99.90
20881;DHT22;10600;53.096;8.802;2022-10-16T04:09:53;11.30;99.90
20881;DHT22;10600;53.096;8.802;2022-10-16T04:10:54;11.30;99.90
20881;DHT22;10600;53.096;8.802;2022-10-16T04:11:54;11.30;99.90
20881;DHT22;10600;53.096;8.802;2022-10-16T04:12:55;11.30;99.90
20881;DHT22;10600;53.096;8.802;2022-10-16T04:13:56;11.30;99.90
20881;DHT22;10600;53.096;8.802;2022-10-16T04:14:56;11.30;99.90
20881;DHT22;10600;53.096;8.802;2022-10-16T04:15:57;11.30;99.90
20881;DHT22;10600;53.096;8.802;2022-10-16T04:16:58;11.20;99.90
20881;DHT22;10600;53.096;8.802;2022-10-16T04:17:58;11.30;99.90
20881;DHT22;10600;53.096;8.802;2022-10-16T04:18:59;11.30;99.90
20881;DHT22;10600;53.096;8.802;2022-10-16T04:20:00;11.20;99.90
20881;DHT22;10600;53.096;8.802;2022-10-16T04:21:05;11.20;99.90
20881;DHT22;10600;53.096;8.802;2022-10-16T04:22:05;11.20;99.90
20881;DHT22;10600;53.096;8.802;2022-10-16T04:23:06;11.30;99.90
20881;DHT22;10600;53.096;8.802;2022-10-16T04:24:07;11.20;99.90
20881;DHT22;10600;53.096;8.802;2022-10-16T04:25:08;11.20;99.90
20881;DHT22;10600;53.096;8.802;2022-10-16T04:26:08;11.30;99.90
20881;DHT22;10600;53.096;8.802;2022-10-16T04:27:10;11.20;99.90
20881;DHT22;10600;53.096;8.802;2022-10-16T04:28:11;11.20;99.90
20881;DHT22;10600;53.096;8.802;2022-10-16T04:29:12;11.30;99.90
20881;DHT22;10600;53.096;8.802;2022-10-16T04:30:13;11.30;99.90
20881;DHT22;10600;53.096;8.802;2022-10-16T04:31:13;11.30;99.90
20881;DHT22;10600;53.096;8.802;2022-10-16T04:32:14;11.40;99.90
20881;DHT22;10600;53.096;8.802;2022-10-16T04:33:15;11.40;99.90
20881;DHT22;10600;53.096;8.802;2022-10-16T04:34:16;11.40;99.90
20881;DHT22;10600;53.096;8.802;2022-10-16T04:35:21;11.40;99.90
20881;DHT22;10600;53.096;8.802;2022-10-16T04:36:21;11.40;99.90
20881;DHT22;10600;53.096;8.802;2022-10-16T04:37:26;11.40;99.90
20881;DHT22;10600;53.096;8.802;2022-10-16T04:38:27;11.40;99.90
20881;DHT22;10600;53.096;8.802;2022-10-16T04:39:28;11.50;99.90
20881;DHT22;10600;53.096;8.802;2022-10-16T04:40:29;11.50;99.90
20881;DHT22;10600;53.096;8.802;2022-10-16T04:41:33;11.50;99.90
20881;DHT22;10600;53.096;8.802;2022-10-16T04:42:33;11.50;99.90
20881;DHT22;10600;53.096;8.802;2022-10-16T04:43:34;11.50;99.90
20881;DHT22;10600;53.096;8.802;2022-10-16T04:44:35;11.60;99.90
20881;DHT22;10600;53.096;8.802;2022-10-16T04:45:35;11.60;99.90
20881;DHT22;10600;53.096;8.802;2022-10-16T04:46:36;11.50;99.90
20881;DHT22;10600;53.096;8.802;2022-10-16T04:47:37;11.60;99.90
20881;DHT22;10600;53.096;8.802;2022-10-16T04:48:37;11.60;99.90
20881;DHT22;10600;53.096;8.802;2022-10-16T04:49:38;11.60;99.90
20881;DHT22;10600;53.096;8.802;2022-10-16T04:50:39;11.60;99.90
20881;DHT22;10600;53.096;8.802;2022-10-16T04:51:40;11.60;99.90
20881;DHT22;10600;53.096;8.802;2022-10-16T04:52:41;11.60;99.90
20881;DHT22;10600;53.096;8.802;2022-10-16T04:53:41;11.60;99.90
20881;DHT22;10600;53.096;8.802;2022-10-16T04:54:42;11.60;99.90
20881;DHT22;10600;53.096;8.802;2022-10-16T04:55:45;11.60;99.90
20881;DHT22;10600;53.096;8.802;2022-10-16T04:56:46;11.60;99.90
20881;DHT22;10600;53.096;8.802;2022-10-16T04:57:51;11.60;99.90
20881;DHT22;10600;53.096;8.802;2022-10-16T04:58:51;11.60;99.90
20881;DHT22;10600;53.096;8.802;2022-10-16T04:59:52;11.70;99.90
20881;DHT22;10600;53.096;8.802;2022-10-16T05:00:53;11.70;99.90
20881;DHT22;10600;53.096;8.802;2022-10-16T05:01:54;11.70;99.90
20881;DHT22;10600;53.096;8.802;2022-10-16T05:02:54;11.60;99.90
20881;DHT22;10600;53.096;8.802;2022-10-16T05:03:55;11.60;99.90
20881;DHT22;10600;53.096;8.802;2022-10-16T05:04:55;11.60;99.90
20881;DHT22;10600;53.096;8.802;2022-10-16T05:05:56;11.70;99.90
20881;DHT22;10600;53.096;8.802;2022-10-16T05:06:57;11.70;99.90
20881;DHT22;10600;53.096;8.802;2022-10-16T05:07:57;11.70;99.90
20881;DHT22;10600;53.096;8.802;2022-10-16T05:08:58;11.70;99.90
20881;DHT22;10600;53.096;8.802;2022-10-16T05:09:59;11.70;99.90
20881;DHT22;10600;53.096;8.802;2022-10-16T05:10:59;11.70;99.90
20881;DHT22;10600;53.096;8.802;2022-10-16T05:12:00;11.80;99.90
20881;DHT22;10600;53.096;8.802;2022-10-16T05:13:01;11.80;99.90
20881;DHT22;10600;53.096;8.802;2022-10-16T05:14:02;11.80;99.90
20881;DHT22;10600;53.096;8.802;2022-10-16T05:15:03;11.80;99.90
20881;DHT22;10600;53.096;8.802;2022-10-16T05:16:04;11.90;99.90
20881;DHT22;10600;53.096;8.802;2022-10-16T05:17:05;11.90;99.90
20881;DHT22;10600;53.096;8.802;2022-10-16T05:18:05;11.90;99.90
20881;DHT22;10600;53.096;8.802;2022-10-16T05:19:06;11.90;99.90
20881;DHT22;10600;53.096;8.802;2022-10-16T05:20:07;11.90;99.90
20881;DHT22;10600;53.096;8.802;2022-10-16T05:21:08;12.00;99.90
20881;DHT22;10600;53.096;8.802;2022-10-16T05:22:08;12.00;99.90
20881;DHT22;10600;53.096;8.802;2022-10-16T05:23:09;12.00;99.90
20881;DHT22;10600;53.096;8.802;2022-10-16T05:24:13;12.00;99.90
20881;DHT22;10600;53.096;8.802;2022-10-16T05:25:13;12.00;99.90
20881;DHT22;10600;53.096;8.802;2022-10-16T05:26:14;12.10;99.90
20881;DHT22;10600;53.096;8.802;2022-10-16T05:27:15;12.10;99.90
20881;DHT22;10600;53.096;8.802;2022-10-16T05:28:19;12.10;99.90
20881;DHT22;10600;53.096;8.802;2022-10-16T05:29:20;12.10;99.90
20881;DHT22;10600;53.096;8.802;2022-10-16T05:30:21;12.10;99.90
20881;DHT22;10600;53.096;8.802;2022-10-16T05:31:22;12.20;99.90
20881;DHT22;10600;53.096;8.802;2022-10-16T05:32:22;12.20;99.90
20881;DHT22;10600;53.096;8.802;2022-10-16T05:33:25;12.20;99.90
20881;DHT22;10600;53.096;8.802;2022-10-16T05:34:26;12.20;99.90
20881;DHT22;10600;53.096;8.802;2022-10-16T05:35:26;12.20;99.90
20881;DHT22;10600;53.096;8.802;2022-10-16T05:36:27;12.20;99.90
20881;DHT22;10600;53.096;8.802;2022-10-16T05:37:28;12.20;99.90
20881;DHT22;10600;53.096;8.802;2022-10-16T05:38:29;12.20;99.90
20881;DHT22;10600;53.096;8.802;2022-10-16T05:39:29;12.20;99.90
20881;DHT22;10600;53.096;8.802;2022-10-16T05:40:30;12.20;99.90
20881;DHT22;10600;53.096;8.802;2022-10-16T05:41:31;12.20;99.90
20881;DHT22;10600;53.096;8.802;2022-10-16T05:42:32;12.20;99.90
20881;DHT22;10600;53.096;8.802;2022-10-16T05:43:32;12.20;99.90
20881;DHT22;10600;53.096;8.802;2022-10-16T05:44:33;12.20;99.90
20881;DHT22;10600;53.096;8.802;2022-10-16T05:45:34;12.20;99.90
20881;DHT22;10600;53.096;8.802;2022-10-16T05:46:34;12.20;99.90
20881;DHT22;10600;53.096;8.802;2022-10-16T05:47:35;12.20;99.90
20881;DHT22;10600;53.096;8.802;2022-10-16T05:48:36;12.20;99.90
20881;DHT22;10600;53.096;8.802;2022-10-16T05:49:36;12.20;99.90
20881;DHT22;10600;53.096;8.802;2022-10-16T05:50:37;12.20;99.90
20881;DHT22;10600;53.096;8.802;2022-10-16T05:51:38;12.30;99.90
20881;DHT22;10600;53.096;8.802;2022-10-16T05:52:38;12.30;99.90
20881;DHT22;10600;53.096;8.802;2022-10-16T05:53:40;12.30;99.90
20881;DHT22;10600;53.096;8.802;2022-10-16T05:54:41;12.30;99.90
20881;DHT22;10600;53.096;8.802;2022-10-16T05:55:41;12.30;99.90
20881;DHT22;10600;53.096;8.802;2022-10-16T05:56:42;12.30;99.90
20881;DHT22;10600;53.096;8.802;2022-10-16T05:57:43;12.30;99.90
20881;DHT22;10600;53.096;8.802;2022-10-16T05:58:44;12.30;99.90
20881;DHT22;10600;53.096;8.802;2022-10-16T05:59:44;12.30;99.90
20881;DHT22;10600;53.096;8.802;2022-10-16T06:01:56;12.30;99.90
20881;DHT22;10600;53.096;8.802;2022-10-16T06:02:56;12.30;99.90
20881;DHT22;10600;53.096;8.802;2022-10-16T06:03:57;12.30;99.90
20881;DHT22;10600;53.096;8.802;2022-10-16T06:04:58;12.30;99.90
20881;DHT22;10600;53.096;8.802;2022-10-16T06:05:59;12.30;99.90
20881;DHT22;10600;53.096;8.802;2022-10-16T06:06:59;12.30;99.90
20881;DHT22;10600;53.096;8.802;2022-10-16T06:08:03;12.30;99.90
20881;DHT22;10600;53.096;8.802;2022-10-16T06:09:04;12.30;99.90
20881;DHT22;10600;53.096;8.802;2022-10-16T06:10:05;12.30;99.90
20881;DHT22;10600;53.096;8.802;2022-10-16T06:11:08;12.30;99.90
20881;DHT22;10600;53.096;8.802;2022-10-16T06:12:09;12.40;99.90
20881;DHT22;10600;53.096;8.802;2022-10-16T06:13:11;12.40;99.90
20881;DHT22;10600;53.096;8.802;2022-10-16T06:14:11;12.40;99.90
20881;DHT22;10600;53.096;8.802;2022-10-16T06:15:12;12.40;99.90
20881;DHT22;10600;53.096;8.802;2022-10-16T06:16:13;12.40;99.90
20881;DHT22;10600;53.096;8.802;2022-10-16T06:17:14;12.40;99.90
20881;DHT22;10600;53.096;8.802;2022-10-16T06:18:15;12.40;99.90
20881;DHT22;10600;53.096;8.802;2022-10-16T06:19:16;12.40;99.90
20881;DHT22;10600;53.096;8.802;2022-10-16T06:20:17;12.40;99.90
20881;DHT22;10600;53.096;8.802;2022-10-16T06:21:20;12.40;99.90
20881;DHT22;10600;53.096;8.802;2022-10-16T06:22:21;12.50;99.90
20881;DHT22;10600;53.096;8.802;2022-10-16T06:23:23;12.50;99.90
20881;DHT22;10600;53.096;8.802;2022-10-16T06:24:24;12.50;99.90
20881;DHT22;10600;53.096;8.802;2022-10-16T06:25:25;12.50;99.90
20881;DHT22;10600;53.096;8.802;2022-10-16T06:26:28;12.50;99.90
20881;DHT22;10600;53.096;8.802;2022-10-16T06:27:29;12.50;99.90
20881;DHT22;10600;53.096;8.802;2022-10-16T06:28:30;12.50;99.90
20881;DHT22;10600;53.096;8.802;2022-10-16T06:29:30;12.60;99.90
20881;DHT22;10600;53.096;8.802;2022-10-16T06:30:31;12.60;99.90
20881;DHT22;10600;53.096;8.802;2022-10-16T06:31:32;12.60;99.90
20881;DHT22;10600;53.096;8.802;2022-10-16T06:32:33;12.60;99.90
20881;DHT22;10600;53.096;8.802;2022-10-16T06:33:35;12.60;99.90
20881;DHT22;10600;53.096;8.802;2022-10-16T06:34:35;12.60;99.90
20881;DHT22;10600;53.096;8.802;2022-10-16T06:35:36;12.60;99.90
20881;DHT22;10600;53.096;8.802;2022-10-16T06:36:39;12.60;99.90
20881;DHT22;10600;53.096;8.802;2022-10-16T06:37:39;12.60;99.90
20881;DHT22;10600;53.096;8.802;2022-10-16T06:38:41;12.60;99.90
20881;DHT22;10600;53.096;8.802;2022-10-16T06:39:41;12.60;99.90
20881;DHT22;10600;53.096;8.802;2022-10-16T06:40:42;12.60;99.90
20881;DHT22;10600;53.096;8.802;2022-10-16T06:41:43;12.60;99.90
20881;DHT22;10600;53.096;8.802;2022-10-16T06:42:44;12.60;99.90
20881;DHT22;10600;53.096;8.802;2022-10-16T06:43:46;12.60;99.90
20881;DHT22;10600;53.096;8.802;2022-10-16T06:44:47;12.60;99.90
20881;DHT22;10600;53.096;8.802;2022-10-16T06:45:56;12.60;99.90
20881;DHT22;10600;53.096;8.802;2022-10-16T06:46:56;12.60;99.90
20881;DHT22;10600;53.096;8.802;2022-10-16T06:47:57;12.70;99.90
20881;DHT22;10600;53.096;8.802;2022-10-16T06:48:58;12.70;99.90